KDLO

Delano Municipal Airport

Delano, California, USA
METAR KDLO 191515Z AUTO 00000KT 10SM CLR 24/11 A2995 RMK AO2 T02360106
Observed Flight Rules
Aug-19 @ 15:15 UTC (22 minutes ago) Visual Flight Rules
Visibility Clouds
10 miles
  • Clear skies
Temperatures Readings
Current 24°C / 75°F
Dewpoint 11°C / 52°F
Humidity 44%
Altimeter 29.95" Hg
Pressure 1014 hPa
Elevation 96
METAR KDLO 191515Z AUTO 00000KT 10SM CLR 24/11 A2995 RMK AO2 T02360106
Observed Flight Rules
Aug-19 @ 15:15 UTC
(22 minutes ago)
VFR
Clouds
  • Clear skies
Temperature Dewpoint
24°C / 75°F 11°C / 52°F
Humidity Altimeter Pressure
44% 29.95" Hg 1014 hPa